Map

Track Data

SID SEASON NUMBER BASIN SUBBASIN NAME ISO_TIME NATURE LAT LON WMO_WIND WMO_PRES WMO_AGENCY TRACK_TYPE DIST2LAND LANDFALL IFLAG USA_AGENCY USA_ATCF_ID USA_LAT USA_LON USA_RECORD USA_STATUS USA_WIND USA_PRES USA_SSHS USA_R34_NE USA_R34_SE USA_R34_SW USA_R34_NW USA_R50_NE USA_R50_SE USA_R50_SW USA_R50_NW USA_R64_NE USA_R64_SE USA_R64_SW USA_R64_NW USA_POCI USA_ROCI USA_RMW USA_EYE TOKYO_LAT TOKYO_LON TOKYO_GRADE TOKYO_WIND TOKYO_PRES TOKYO_R50_DIR TOKYO_R50_LONG TOKYO_R50_SHORT TOKYO_R30_DIR TOKYO_R30_LONG TOKYO_R30_SHORT TOKYO_LAND CMA_LAT CMA_LON CMA_CAT CMA_WIND CMA_PRES HKO_LAT HKO_LON HKO_CAT HKO_WIND HKO_PRES NEWDELHI_LAT NEWDELHI_LON NEWDELHI_GRADE NEWDELHI_WIND NEWDELHI_PRES NEWDELHI_CI NEWDELHI_DP NEWDELHI_POCI REUNION_LAT REUNION_LON REUNION_TYPE REUNION_WIND REUNION_PRES REUNION_TNUM REUNION_CI REUNION_RMW REUNION_R34_NE REUNION_R34_SE REUNION_R34_SW REUNION_R34_NW REUNION_R50_NE REUNION_R50_SE REUNION_R50_SW REUNION_R50_NW REUNION_R64_NE REUNION_R64_SE REUNION_R64_SW REUNION_R64_NW BOM_LAT BOM_LON BOM_TYPE BOM_WIND BOM_PRES BOM_TNUM BOM_CI BOM_RMW BOM_R34_NE BOM_R34_SE BOM_R34_SW BOM_R34_NW BOM_R50_NE BOM_R50_SE BOM_R50_SW BOM_R50_NW BOM_R64_NE BOM_R64_SE BOM_R64_SW BOM_R64_NW BOM_ROCI BOM_POCI BOM_EYE BOM_POS_METHOD BOM_PRES_METHOD NADI_LAT NADI_LON NADI_CAT NADI_WIND NADI_PRES WELLINGTON_LAT WELLINGTON_LON WELLINGTON_WIND WELLINGTON_PRES DS824_LAT DS824_LON DS824_STAGE DS824_WIND DS824_PRES TD9636_LAT TD9636_LON TD9636_STAGE TD9636_WIND TD9636_PRES TD9635_LAT TD9635_LON TD9635_WIND TD9635_PRES TD9635_ROCI NEUMANN_LAT NEUMANN_LON NEUMANN_CLASS NEUMANN_WIND NEUMANN_PRES MLC_LAT MLC_LON MLC_CLASS MLC_WIND MLC_PRES USA_GUST BOM_GUST BOM_GUST_PER REUNION_GUST REUNION_GUST_PER USA_SEAHGT USA_SEARAD_NE USA_SEARAD_SE USA_SEARAD_SW USA_SEARAD_NW STORM_SPEED STORM_DIR
1924140N14094 1924 9 NI BB NOT_NAMED 1924-05-19 00:00:00 TS 14.0000 94.3000 main 201 201 _________O____ -1 14.0000 94.3000 TC 30 5 267
1924140N14094 1924 9 NI BB NOT_NAMED 1924-05-19 03:00:00 TS 13.9884 94.0283 main 206 206 _________PO___ -1 13.9826 93.8925 TC 30 14.0000 94.3000 1 6 271
1924140N14094 1924 9 NI BB NOT_NAMED 1924-05-19 06:00:00 TS 14.0134 93.6601 main 215 215 _________OP___ -1 14.0000 93.5000 TC 30 14.0335 93.9002 1 7 277
1924140N14094 1924 9 NI BB NOT_NAMED 1924-05-19 09:00:00 TS 14.0757 93.2959 main 224 224 _________PP___ -1 14.0774 93.1350 TC 30 14.0733 93.5103 1 7 283
1924140N14094 1924 9 NI BB NOT_NAMED 1924-05-19 12:00:00 TS 14.1632 92.9701 main 233 233 _________OP___ -1 14.2000 92.8000 TC 30 14.1264 93.1403 1 7 287
1924140N14094 1924 9 NI BB NOT_NAMED 1924-05-19 15:00:00 TS 14.2675 92.6462 main 256 256 _________PO___ -1 14.3349 92.4925 TC 30 14.2000 92.8000 1 7 292
1924140N14094 1924 9 NI BB NOT_NAMED 1924-05-19 18:00:00 TS 14.4011 92.3471 main 271 271 _________OP___ -1 14.5000 92.2000 TC 30 14.3021 92.4942 1 6 297
1924140N14094 1924 9 NI BB NOT_NAMED 1924-05-19 21:00:00 TS 14.5572 92.0645 main 274 274 _________PP___ -1 14.6699 91.9223 TC 30 14.4444 92.2067 1 7 303
1924140N14094 1924 9 NI BB NOT_NAMED 1924-05-20 00:00:00 TS 14.7698 91.7579 main 290 290 _________OP___ -1 14.9000 91.6000 TC 30 14.6396 91.9158 1 8 307
1924140N14094 1924 9 NI BB NOT_NAMED 1924-05-20 03:00:00 TS 15.0563 91.3788 main 316 316 _________PO___ -1 15.2126 91.1576 TC 30 14.9000 91.6000 1 10 309
1924140N14094 1924 9 NI BB NOT_NAMED 1924-05-20 06:00:00 TS 15.4179 90.9365 main 359 357 _________OP___ -1 15.6000 90.7000 TC 30 15.2359 91.1730 1 11 313
1924140N14094 1924 9 NI BB NOT_NAMED 1924-05-20 09:00:00 TS 15.8379 90.5121 main 396 395 _________PP___ -1 16.0425 90.2976 TC 30 15.6333 90.7266 1 11 319
1924140N14094 1924 9 NI BB NOT_NAMED 1924-05-20 12:00:00 TS 16.2820 90.1584 main 428 428 _________OP___ -1 16.5000 90.0000 TC 30 16.0640 90.3168 1 10 327
1924140N14094 1924 9 NI BB NOT_NAMED 1924-05-20 15:00:00 TS 16.7037 89.9237 main 465 463 _________PO___ -1 16.9074 89.8473 TC 30 16.5000 90.0000 1 9 339
1924140N14094 1924 9 NI BB NOT_NAMED 1924-05-20 18:00:00 TS 17.1160 89.8141 main 463 436 _________OP___ -1 17.3000 89.8000 TC 30 16.9320 89.8283 1 9 350
1924140N14094 1924 9 NI BB NOT_NAMED 1924-05-20 21:00:00 TS 17.5447 89.7670 main 436 406 _________PP___ -1 17.7300 89.7774 TC 30 17.3594 89.7566 1 8 357
1924140N14094 1924 9 NI BB NOT_NAMED 1924-05-21 00:00:00 TS 17.9286 89.7783 main 406 384 _________OP___ -1 18.1000 89.8000 TC 30 17.7572 89.7566 1 7 3
1924140N14094 1924 9 NI BB NOT_NAMED 1924-05-21 03:00:00 TS 18.2150 89.8175 main 384 362 _________PO___ -1 18.3300 89.8350 TC 30 18.1000 89.8000 1 5 8
1924140N14094 1924 9 NI BB NOT_NAMED 1924-05-21 06:00:00 TS 18.4328 89.8654 main 362 345 _________OP___ -1 18.5000 89.9000 TC 30 18.3656 89.8308 1 4 16
1924140N14094 1924 9 NI BB NOT_NAMED 1924-05-21 09:00:00 TS 18.6412 89.9449 main 345 326 _________PP___ -1 18.7075 89.9925 TC 30 18.5749 89.8973 1 4 24
1924140N14094 1924 9 NI BB NOT_NAMED 1924-05-21 12:00:00 TS 18.8234 90.0451 main 326 306 _________OP___ -1 18.9000 90.1000 TC 30 18.7468 89.9902 1 4 29
1924140N14094 1924 9 NI BB NOT_NAMED 1924-05-21 15:00:00 TS 18.9787 90.1463 main 306 291 _________PO___ -1 19.0575 90.1926 TC 30 18.9000 90.1000 1 4 33
1924140N14094 1924 9 NI BB NOT_NAMED 1924-05-21 18:00:00 TS 19.1362 90.2533 main 283 261 _________OP___ -1 19.2000 90.3000 TC 30 19.0725 90.2066 1 4 35
1924140N14094 1924 9 NI BB NOT_NAMED 1924-05-21 21:00:00 TS 19.2937 90.3850 main 261 246 _________PP___ -1 19.3575 90.4425 TC 30 19.2300 90.3275 1 4 41
1924140N14094 1924 9 NI BB NOT_NAMED 1924-05-22 00:00:00 TS 19.4362 90.5299 main 246 222 _________OP___ -1 19.5000 90.6000 TC 30 19.3725 90.4597 1 4 46
1924140N14094 1924 9 NI BB NOT_NAMED 1924-05-22 03:00:00 TS 19.5537 90.6750 main 215 200 _________PO___ -1 19.6075 90.7500 TC 30 19.5000 90.6000 1 4 51
1924140N14094 1924 9 NI BB NOT_NAMED 1924-05-22 06:00:00 TS 19.6572 90.8215 main 200 177 _________OP___ -1 19.7000 90.9000 TC 30 19.6144 90.7429 1 3 54
1924140N14094 1924 9 NI BB NOT_NAMED 1924-05-22 09:00:00 TS 19.7575 90.9713 main 177 168 _________PP___ -1 19.8000 91.0500 TC 30 19.7150 90.8926 1 3 55
1924140N14094 1924 9 NI BB NOT_NAMED 1924-05-22 12:00:00 TS 19.8541 91.1230 main 162 145 _________OP___ -1 19.9000 91.2000 TC 30 19.8081 91.0460 1 3 56
1924140N14094 1924 9 NI BB NOT_NAMED 1924-05-22 15:00:00 TS 19.9500 91.2750 main 138 130 _________PO___ -1 20.0000 91.3500 TC 30 19.9000 91.2000 1 3 56
1924140N14094 1924 9 NI BB NOT_NAMED 1924-05-22 18:00:00 TS 20.0404 91.4155 main 130 107 _________OP___ -1 20.1000 91.5000 TC 30 19.9957 91.3521 1 3 55
1924140N14094 1924 9 NI BB NOT_NAMED 1924-05-22 21:00:00 TS 20.1371 91.5614 main 107 91 _________PP___ -1 20.2000 91.6500 TC 30 20.0951 91.5023 1 3 54
1924140N14094 1924 9 NI BB NOT_NAMED 1924-05-23 00:00:00 TS 20.2313 91.7009 main 91 76 _________OP___ -1 20.3000 91.8000 TC 30 20.1970 91.6514 1 3 54
1924140N14094 1924 9 NI BB NOT_NAMED 1924-05-23 03:00:00 NR 20.3000 91.8000 main 76 __________O___ -1 TC 20.3000 91.8000 1 2 55

About IBTrACS Database

This database is a web-friendly format of International Best Track Archive for Climate Stewardship (IBTrACS), a global best track data archive curated by NOAA dating back to 1842.

Updated: 2021-10-27